createdAt,value
2022-07-28T00:00:09.327Z,1013.04
2022-07-28T00:00:35.097Z,1012.83
2022-07-28T00:00:57.191Z,1012.83
2022-07-28T00:01:29.141Z,1012.83
2022-07-28T00:02:01.361Z,1012.83
2022-07-28T00:02:33.296Z,1012.83
2022-07-28T00:03:05.457Z,1012.83
2022-07-28T00:03:36.684Z,1012.83
2022-07-28T00:03:53.301Z,1012.83
2022-07-28T00:04:25.116Z,1012.83
2022-07-28T00:04:43.501Z,1012.73
2022-07-28T00:05:13.340Z,1012.73
2022-07-28T00:05:35.145Z,1012.83
2022-07-28T00:06:01.466Z,1012.83
2022-07-28T00:06:33.253Z,1012.83
2022-07-28T00:07:05.976Z,1012.73
2022-07-28T00:07:35.928Z,1012.93
2022-07-28T00:07:55.693Z,1012.93
2022-07-28T00:08:25.931Z,1012.93
2022-07-28T00:08:57.014Z,1012.83
2022-07-28T00:09:29.010Z,1012.83
2022-07-28T00:10:02.834Z,1012.93
2022-07-28T00:10:33.546Z,1012.93
2022-07-28T00:11:05.023Z,1012.73
2022-07-28T00:11:35.164Z,1012.73
2022-07-28T00:11:54.546Z,1012.73
2022-07-28T00:12:25.904Z,1012.73
2022-07-28T00:12:43.383Z,1012.63
2022-07-28T00:13:14.160Z,1012.63
2022-07-28T00:13:36.045Z,1012.53
2022-07-28T00:14:01.325Z,1012.53
2022-07-28T00:14:33.199Z,1012.53
2022-07-28T00:15:05.331Z,1012.73
2022-07-28T00:15:36.122Z,1012.63
2022-07-28T00:15:54.739Z,1012.63
2022-07-28T00:16:25.256Z,1012.63
2022-07-28T00:16:57.046Z,1012.73
2022-07-28T00:17:29.815Z,1012.73
2022-07-28T00:18:01.473Z,1012.73
2022-07-28T00:18:33.156Z,1012.73
2022-07-28T00:19:05.091Z,1012.73
2022-07-28T00:19:36.265Z,1012.53
2022-07-28T00:20:08.665Z,1012.53
2022-07-28T00:20:25.926Z,1012.53
2022-07-28T00:20:43.887Z,1012.73
2022-07-28T00:21:13.586Z,1012.73
2022-07-28T00:21:36.858Z,1012.63
2022-07-28T00:22:02.455Z,1012.63
2022-07-28T00:22:34.061Z,1012.63
2022-07-28T00:23:05.200Z,1012.83
2022-07-28T00:23:38.714Z,1012.53
2022-07-28T00:23:54.092Z,1012.53
2022-07-28T00:24:25.207Z,1012.53
2022-07-28T00:24:42.842Z,1012.53
2022-07-28T00:25:13.432Z,1012.53
2022-07-28T00:25:35.193Z,1012.63
2022-07-28T00:26:01.223Z,1012.63
2022-07-28T00:26:33.252Z,1012.63
2022-07-28T00:27:05.820Z,1012.43
2022-07-28T00:27:36.748Z,1012.63
2022-07-28T00:28:08.990Z,1012.63
2022-07-28T00:28:35.073Z,1012.63
2022-07-28T00:28:57.073Z,1012.63
2022-07-28T00:29:49.928Z,1012.63
2022-07-28T00:30:03.482Z,1012.73
2022-07-28T00:30:33.463Z,1012.73
2022-07-28T00:31:07.697Z,1012.63
2022-07-28T00:31:35.149Z,1012.53
2022-07-28T00:31:54.040Z,1012.53
2022-07-28T00:32:25.287Z,1012.53
2022-07-28T00:32:57.705Z,1012.63
2022-07-28T00:33:29.064Z,1012.63
2022-07-28T00:34:01.291Z,1012.63
2022-07-28T00:34:33.209Z,1012.63
2022-07-28T00:35:05.139Z,1012.43
2022-07-28T00:35:35.137Z,1012.53
2022-07-28T00:35:53.274Z,1012.53
2022-07-28T00:36:25.661Z,1012.53
2022-07-28T00:36:42.485Z,1012.53
2022-07-28T00:37:14.759Z,1012.53
2022-07-28T00:37:39.842Z,1012.43
2022-07-28T00:38:01.912Z,1012.43
2022-07-28T00:38:33.185Z,1012.43
2022-07-28T00:39:05.085Z,1012.63
2022-07-28T00:39:35.070Z,1012.73
2022-07-28T00:39:53.309Z,1012.73
2022-07-28T00:40:26.024Z,1012.73
2022-07-28T00:40:58.019Z,1012.63
2022-07-28T00:41:29.067Z,1012.63
2022-07-28T00:42:01.261Z,1012.73
2022-07-28T00:42:33.194Z,1012.73
2022-07-28T00:43:06.500Z,1012.83
2022-07-28T00:43:35.225Z,1012.73
2022-07-28T00:43:53.209Z,1012.73
2022-07-28T00:44:25.130Z,1012.73
2022-07-28T00:44:42.553Z,1012.63
2022-07-28T00:45:13.445Z,1012.63
2022-07-28T00:45:35.108Z,1012.53
2022-07-28T00:46:07.368Z,1012.53
2022-07-28T00:46:33.397Z,1012.53
2022-07-28T00:47:06.213Z,1012.53
2022-07-28T00:47:35.226Z,1012.53
2022-07-28T00:47:53.853Z,1012.53
2022-07-28T00:48:25.186Z,1012.53
2022-07-28T00:48:42.862Z,1012.73
2022-07-28T00:49:13.433Z,1012.73
2022-07-28T00:49:35.140Z,1012.63
2022-07-28T00:50:01.391Z,1012.63
2022-07-28T00:50:33.244Z,1012.63
2022-07-28T00:51:05.151Z,1012.53
2022-07-28T00:51:35.226Z,1012.53
2022-07-28T00:51:53.204Z,1012.53
2022-07-28T00:52:25.134Z,1012.53
2022-07-28T00:52:43.075Z,1012.53
2022-07-28T00:53:13.802Z,1012.53
2022-07-28T00:53:35.094Z,1012.73
2022-07-28T00:54:02.300Z,1012.73
2022-07-28T00:54:33.523Z,1012.73
2022-07-28T00:55:05.189Z,1012.63
2022-07-28T00:56:03.592Z,1012.43
2022-07-28T00:56:09.376Z,1012.43
2022-07-28T00:56:36.536Z,1012.43
2022-07-28T00:56:57.019Z,1012.43
2022-07-28T00:57:29.055Z,1012.43
2022-07-28T00:58:02.606Z,1012.63
2022-07-28T00:58:34.082Z,1012.63
2022-07-28T00:59:05.059Z,1012.33
2022-07-28T00:59:35.221Z,1012.43
2022-07-28T00:59:53.182Z,1012.43
2022-07-28T01:00:25.190Z,1012.43
2022-07-28T01:00:43.052Z,1012.43
2022-07-28T01:01:13.309Z,1012.43
2022-07-28T01:01:36.015Z,1012.43
2022-07-28T01:02:01.581Z,1012.43
2022-07-28T01:02:33.355Z,1012.43
2022-07-28T01:03:06.247Z,1012.43
2022-07-28T01:03:35.307Z,1012.33
2022-07-28T01:03:53.238Z,1012.33
2022-07-28T01:04:25.072Z,1012.33
2022-07-28T01:04:42.666Z,1012.53
2022-07-28T01:05:13.497Z,1012.53
2022-07-28T01:05:43.652Z,1012.43
2022-07-28T01:06:01.234Z,1012.43
2022-07-28T01:06:33.258Z,1012.43
2022-07-28T01:07:06.012Z,1012.33
2022-07-28T01:07:35.303Z,1012.53
2022-07-28T01:07:53.258Z,1012.53
2022-07-28T01:08:25.588Z,1012.53
2022-07-28T01:08:43.221Z,1012.43
2022-07-28T01:09:13.421Z,1012.43
2022-07-28T01:09:36.071Z,1012.43
2022-07-28T01:10:01.217Z,1012.43
2022-07-28T01:10:33.244Z,1012.43
2022-07-28T01:11:05.054Z,1012.33
2022-07-28T01:11:43.020Z,1012.43
2022-07-28T01:11:53.227Z,1012.43
2022-07-28T01:12:25.066Z,1012.43
2022-07-28T01:12:43.548Z,1012.33
2022-07-28T01:13:13.322Z,1012.33
2022-07-28T01:13:36.585Z,1012.53
2022-07-28T01:14:01.241Z,1012.53
2022-07-28T01:14:33.276Z,1012.53
2022-07-28T01:15:05.121Z,1012.33
2022-07-28T01:15:36.688Z,1012.53
2022-07-28T01:15:54.126Z,1012.53
2022-07-28T01:16:25.107Z,1012.53
2022-07-28T01:16:42.467Z,1012.43
2022-07-28T01:17:15.007Z,1012.43
2022-07-28T01:17:35.100Z,1012.33
2022-07-28T01:18:01.405Z,1012.33
2022-07-28T01:18:33.694Z,1012.33
2022-07-28T01:19:05.027Z,1012.22
2022-07-28T01:19:36.693Z,1012.02
2022-07-28T01:20:08.983Z,1012.02
2022-07-28T01:20:35.114Z,1012.43
2022-07-28T01:20:57.025Z,1012.43
2022-07-28T01:21:28.986Z,1012.43
2022-07-28T01:22:01.179Z,1012.43
2022-07-28T01:22:34.101Z,1012.43
2022-07-28T01:23:05.069Z,1012.43
2022-07-28T01:44:35.073Z,1012.22
2022-07-28T01:44:56.924Z,1012.22
2022-07-28T01:45:29.843Z,1012.22
2022-07-28T01:46:01.585Z,1012.33
2022-07-28T01:46:33.293Z,1012.33
2022-07-28T01:47:04.814Z,1012.22
2022-07-28T01:47:36.184Z,1012.22
2022-07-28T01:48:08.921Z,1012.22
2022-07-28T01:48:35.968Z,1012.22
2022-07-28T01:48:57.005Z,1012.22
2022-07-28T01:49:29.004Z,1012.22
2022-07-28T01:50:01.398Z,1012.22
2022-07-28T01:50:33.199Z,1012.22
2022-07-28T01:51:05.718Z,1012.02
2022-07-28T01:51:35.237Z,1012.22
2022-07-28T01:51:53.261Z,1012.22
2022-07-28T01:52:25.026Z,1012.22
2022-07-28T01:52:42.285Z,1012.33
2022-07-28T01:53:13.427Z,1012.33
2022-07-28T01:53:37.583Z,1012.12
2022-07-28T01:54:01.073Z,1012.12
2022-07-28T01:54:33.284Z,1012.12
2022-07-28T01:55:05.026Z,1012.43
2022-07-28T01:55:35.177Z,1012.22
2022-07-28T01:55:53.262Z,1012.22
2022-07-28T01:56:25.038Z,1012.22
2022-07-28T01:56:42.144Z,1012.12
2022-07-28T01:57:13.439Z,1012.12
2022-07-28T01:57:35.992Z,1012.12
2022-07-28T01:58:01.081Z,1012.12
2022-07-28T01:58:33.324Z,1012.12
2022-07-28T01:59:05.983Z,1012.22
2022-07-28T01:59:36.398Z,1012.02
2022-07-28T01:59:53.111Z,1012.02
2022-07-28T02:00:25.091Z,1012.02
2022-07-28T02:00:43.373Z,1012.02
2022-07-28T02:01:13.704Z,1012.02
2022-07-28T02:01:35.205Z,1012.12
2022-07-28T02:02:01.213Z,1012.12
2022-07-28T02:02:33.173Z,1012.12
2022-07-28T02:11:05.025Z,1012.12
2022-07-28T02:11:35.216Z,1012.02
2022-07-28T02:11:53.371Z,1012.02
2022-07-28T02:12:25.011Z,1012.02
2022-07-28T02:12:42.222Z,1012.12
2022-07-28T02:13:13.394Z,1012.12
2022-07-28T02:13:35.174Z,1011.82
2022-07-28T02:14:01.115Z,1011.82
2022-07-28T02:14:33.953Z,1011.82
2022-07-28T02:15:05.060Z,1012.02
2022-07-28T02:15:35.588Z,1012.12
2022-07-28T02:15:53.464Z,1012.12
2022-07-28T02:16:25.635Z,1012.12
2022-07-28T02:16:43.106Z,1012.12
2022-07-28T02:17:14.014Z,1012.12
2022-07-28T02:17:35.084Z,1012.02
2022-07-28T02:18:01.090Z,1012.02
2022-07-28T02:18:33.277Z,1012.02
2022-07-28T02:19:04.997Z,1011.92
2022-07-28T02:19:35.093Z,1011.92
2022-07-28T02:19:53.512Z,1011.92
2022-07-28T02:20:25.016Z,1011.92
2022-07-28T02:20:56.921Z,1012.02
2022-07-28T02:21:30.675Z,1012.02
2022-07-28T02:22:01.676Z,1012.02
2022-07-28T02:22:33.331Z,1012.02
2022-07-28T02:23:04.959Z,1012.12
2022-07-28T02:23:35.118Z,1011.92
2022-07-28T02:23:54.769Z,1011.92
2022-07-28T02:24:24.992Z,1011.92
2022-07-28T02:24:42.192Z,1012.02
2022-07-28T02:25:13.606Z,1012.02
2022-07-28T02:25:35.107Z,1011.92
2022-07-28T02:26:02.165Z,1011.92
2022-07-28T02:26:33.735Z,1011.92
2022-07-28T02:27:05.186Z,1012.02
2022-07-28T02:27:35.118Z,1011.82
2022-07-28T02:28:08.887Z,1011.82
2022-07-28T02:28:35.084Z,1011.92
2022-07-28T02:28:57.164Z,1011.92
2022-07-28T02:29:49.674Z,1011.92
2022-07-28T02:30:01.158Z,1011.92
2022-07-28T02:30:33.235Z,1011.92
2022-07-28T02:31:06.979Z,1011.92
2022-07-28T02:31:36.427Z,1012.12
2022-07-28T02:31:53.190Z,1012.12
2022-07-28T02:32:27.807Z,1012.12
2022-07-28T02:32:42.900Z,1011.82
2022-07-28T02:33:13.472Z,1011.82
2022-07-28T02:33:58.974Z,1011.82
2022-07-28T02:34:17.229Z,1011.82
2022-07-28T02:34:35.135Z,1011.72
2022-07-28T02:35:05.048Z,1011.72
2022-07-28T02:35:37.638Z,1012.02
2022-07-28T02:36:08.979Z,1012.02
2022-07-28T02:36:35.160Z,1011.82
2022-07-28T02:36:56.966Z,1011.82
2022-07-28T02:37:28.958Z,1011.82
2022-07-28T02:38:01.066Z,1011.82
2022-07-28T02:38:33.886Z,1011.82
2022-07-28T02:39:05.408Z,1011.92
2022-07-28T02:39:35.980Z,1011.92
2022-07-28T02:40:08.993Z,1011.92
2022-07-28T02:40:35.148Z,1011.92
2022-07-28T02:40:57.091Z,1011.92
2022-07-28T02:41:29.004Z,1011.92
2022-07-28T02:42:01.708Z,1011.82
2022-07-28T02:42:34.994Z,1011.82
2022-07-28T02:43:05.027Z,1012.02
2022-07-28T02:43:45.855Z,1011.82
2022-07-28T02:43:53.226Z,1011.82
2022-07-28T02:44:24.934Z,1011.82
2022-07-28T02:44:43.622Z,1011.72
2022-07-28T02:45:13.935Z,1011.72
2022-07-28T02:45:37.285Z,1011.51
2022-07-28T02:46:01.176Z,1011.51
2022-07-28T02:46:33.704Z,1011.51
2022-07-28T02:47:05.998Z,1011.92
2022-07-28T02:47:35.334Z,1011.72
2022-07-28T02:47:53.855Z,1011.72
2022-07-28T02:48:24.922Z,1011.72
2022-07-28T02:48:41.962Z,1011.72
2022-07-28T02:49:13.563Z,1011.72
2022-07-28T02:49:35.216Z,1011.72
2022-07-28T02:50:01.218Z,1011.72
2022-07-28T02:50:33.126Z,1011.72
2022-07-28T02:51:06.418Z,1011.72
2022-07-28T02:51:35.105Z,1011.72
2022-07-28T02:51:53.085Z,1011.72
2022-07-28T02:52:25.913Z,1011.72
2022-07-28T02:52:43.260Z,1011.51
2022-07-28T02:53:15.089Z,1011.51
2022-07-28T02:53:36.095Z,1011.61
2022-07-28T02:54:01.110Z,1011.61
2022-07-28T02:54:33.314Z,1011.61
2022-07-28T02:55:04.974Z,1011.72
2022-07-28T02:55:35.987Z,1011.82
2022-07-28T02:56:11.343Z,1011.82
2022-07-28T02:56:35.637Z,1011.61
2022-07-28T02:56:56.931Z,1011.61
2022-07-28T02:57:28.923Z,1011.61
2022-07-28T02:58:01.229Z,1011.51
2022-07-28T02:58:33.208Z,1011.51
2022-07-28T02:59:05.044Z,1011.61
2022-07-28T02:59:36.117Z,1011.82
2022-07-28T02:59:53.358Z,1011.82
2022-07-28T03:00:25.049Z,1011.82
2022-07-28T03:00:43.321Z,1011.72
2022-07-28T03:01:13.966Z,1011.72
2022-07-28T03:01:35.227Z,1011.72
2022-07-28T03:02:02.556Z,1011.72
2022-07-28T03:02:33.207Z,1011.72
2022-07-28T03:03:04.963Z,1011.82
2022-07-28T03:03:35.145Z,1011.41
2022-07-28T03:03:55.287Z,1011.41
2022-07-28T03:04:24.985Z,1011.41
2022-07-28T03:04:42.247Z,1011.51
2022-07-28T03:05:13.662Z,1011.51
2022-07-28T03:05:36.275Z,1011.72
2022-07-28T03:06:01.136Z,1011.72
2022-07-28T03:06:33.226Z,1011.72
2022-07-28T03:07:04.996Z,1011.61
2022-07-28T03:07:37.243Z,1011.72
2022-07-28T03:08:08.876Z,1011.72
2022-07-28T03:08:35.088Z,1011.72
2022-07-28T03:08:56.997Z,1011.72
2022-07-28T03:09:28.943Z,1011.72
2022-07-28T03:10:02.320Z,1011.41
2022-07-28T03:10:34.821Z,1011.41
2022-07-28T03:11:05.008Z,1011.61
2022-07-28T03:11:35.161Z,1011.61
2022-07-28T03:11:53.378Z,1011.61
2022-07-28T03:12:24.971Z,1011.61
2022-07-28T03:12:42.419Z,1011.61
2022-07-28T03:13:13.547Z,1011.61
2022-07-28T03:13:35.760Z,1011.72
2022-07-28T03:14:01.996Z,1011.72
2022-07-28T03:14:33.191Z,1011.72
2022-07-28T03:15:05.072Z,1011.72
2022-07-28T03:15:35.209Z,1011.61
2022-07-28T03:15:53.255Z,1011.61
2022-07-28T03:16:25.662Z,1011.61
2022-07-28T03:16:43.423Z,1011.61
2022-07-28T03:17:13.914Z,1011.61
2022-07-28T03:17:35.193Z,1011.72
2022-07-28T03:18:01.091Z,1011.72
2022-07-28T03:18:33.980Z,1011.72
2022-07-28T03:19:05.045Z,1011.82
2022-07-28T03:19:35.251Z,1011.82
2022-07-28T03:19:53.501Z,1011.82
2022-07-28T03:20:25.009Z,1011.82
2022-07-28T03:20:42.366Z,1011.72
2022-07-28T03:21:13.180Z,1011.72
2022-07-28T03:21:35.288Z,1011.72
2022-07-28T03:22:01.069Z,1011.72
2022-07-28T03:22:33.234Z,1011.72
2022-07-28T03:23:05.060Z,1011.61
2022-07-28T03:23:35.248Z,1011.92
2022-07-28T03:23:53.381Z,1011.92
2022-07-28T03:24:25.023Z,1011.92
2022-07-28T03:24:43.523Z,1011.72
2022-07-28T03:25:13.320Z,1011.72
2022-07-28T03:25:36.837Z,1011.72
2022-07-28T03:26:01.224Z,1011.72
2022-07-28T03:26:35.120Z,1011.72
2022-07-28T03:27:05.321Z,1011.51
2022-07-28T03:27:36.999Z,1011.82
2022-07-28T03:28:09.947Z,1011.82
2022-07-28T03:28:35.178Z,1011.72
2022-07-28T03:28:58.745Z,1011.72
2022-07-28T03:29:28.887Z,1011.72
2022-07-28T03:30:03.900Z,1011.61
2022-07-28T03:30:33.475Z,1011.61
2022-07-28T03:31:05.164Z,1011.61
2022-07-28T03:31:37.644Z,1011.72
2022-07-28T03:32:08.984Z,1011.72
2022-07-28T03:32:35.200Z,1011.61
2022-07-28T03:32:56.890Z,1011.61
2022-07-28T03:33:29.378Z,1011.61
2022-07-28T03:34:02.164Z,1011.41
2022-07-28T03:34:34.468Z,1011.41
2022-07-28T03:35:05.879Z,1011.61
2022-07-28T03:35:35.665Z,1011.82
2022-07-28T03:35:53.951Z,1011.82
2022-07-28T03:36:25.004Z,1011.82
2022-07-28T03:36:42.942Z,1011.51
2022-07-28T03:37:13.273Z,1011.51
2022-07-28T03:37:36.197Z,1011.82
2022-07-28T03:38:01.081Z,1011.82
2022-07-28T03:38:33.238Z,1011.82
2022-07-28T03:39:05.073Z,1011.51
2022-07-28T03:39:35.962Z,1011.72
2022-07-28T03:40:08.289Z,1011.72
2022-07-28T03:40:24.853Z,1011.72
2022-07-28T03:40:42.049Z,1011.72
2022-07-28T03:41:14.026Z,1011.72
2022-07-28T03:41:36.011Z,1011.82
2022-07-28T03:42:01.015Z,1011.82
2022-07-28T03:42:33.163Z,1011.82
2022-07-28T03:43:05.727Z,1011.61
2022-07-28T03:43:35.277Z,1011.72
2022-07-28T03:43:53.355Z,1011.72
2022-07-28T03:44:28.731Z,1011.72
2022-07-28T03:44:42.517Z,1011.61
2022-07-28T03:45:13.514Z,1011.61
2022-07-28T03:45:35.262Z,1011.61
2022-07-28T03:46:01.144Z,1011.61
2022-07-28T03:46:33.198Z,1011.61
2022-07-28T03:47:07.280Z,1011.72
2022-07-28T03:47:36.042Z,1011.82
2022-07-28T03:47:53.206Z,1011.82
2022-07-28T03:48:24.916Z,1011.82
2022-07-28T03:48:42.065Z,1011.51
2022-07-28T03:49:15.340Z,1011.51
2022-07-28T03:49:35.975Z,1011.82
2022-07-28T03:50:01.169Z,1011.82
2022-07-28T03:50:33.463Z,1011.82
2022-07-28T03:51:04.994Z,1011.82
2022-07-28T03:51:35.793Z,1011.61
2022-07-28T03:51:53.854Z,1011.61
2022-07-28T03:52:25.959Z,1011.61
2022-07-28T03:52:43.480Z,1011.82
2022-07-28T03:53:13.461Z,1011.82
2022-07-28T03:53:35.135Z,1011.72
2022-07-28T03:54:02.247Z,1011.72
2022-07-28T03:54:33.406Z,1011.72
2022-07-28T03:55:05.063Z,1011.72
2022-07-28T03:55:35.396Z,1011.82
2022-07-28T03:55:54.122Z,1011.82
2022-07-28T03:56:27.006Z,1011.82
2022-07-28T03:56:56.994Z,1011.72
2022-07-28T03:57:29.629Z,1011.72
2022-07-28T03:58:01.752Z,1011.61
2022-07-28T03:58:33.910Z,1011.61
2022-07-28T03:59:05.138Z,1011.82
2022-07-28T03:59:35.430Z,1011.61
2022-07-28T03:59:53.748Z,1011.61
2022-07-28T04:00:26.123Z,1011.61
2022-07-28T04:00:43.623Z,1011.61
2022-07-28T04:01:13.584Z,1011.61
2022-07-28T04:01:36.172Z,1011.61
2022-07-28T04:02:02.450Z,1011.61
2022-07-28T04:02:34.732Z,1011.61
2022-07-28T04:03:05.178Z,1011.41
2022-07-28T04:03:53.462Z,1011.61
2022-07-28T04:04:25.236Z,1011.61
2022-07-28T04:04:42.305Z,1011.61
2022-07-28T04:05:13.858Z,1011.61
2022-07-28T04:05:36.318Z,1011.61
2022-07-28T04:06:01.307Z,1011.61
2022-07-28T04:06:34.112Z,1011.61
2022-07-28T04:07:05.345Z,1011.41
2022-07-28T04:07:36.033Z,1011.61
2022-07-28T04:07:53.882Z,1011.61
2022-07-28T04:08:25.158Z,1011.61
2022-07-28T04:08:42.477Z,1011.61
2022-07-28T04:09:13.570Z,1011.61
2022-07-28T04:09:35.380Z,1011.61
2022-07-28T04:10:01.297Z,1011.61
2022-07-28T04:10:33.341Z,1011.61
2022-07-28T04:11:06.001Z,1011.72
2022-07-28T04:11:36.329Z,1011.82
2022-07-28T04:11:53.285Z,1011.82
2022-07-28T04:12:25.072Z,1011.82
2022-07-28T04:12:43.015Z,1011.72
2022-07-28T04:13:13.520Z,1011.72
2022-07-28T04:13:35.336Z,1011.61
2022-07-28T04:14:01.310Z,1011.61
2022-07-28T04:14:33.284Z,1011.61
2022-07-28T04:15:05.299Z,1011.82
2022-07-28T04:15:35.312Z,1011.61
2022-07-28T04:15:54.209Z,1011.61
2022-07-28T04:16:25.988Z,1011.61
2022-07-28T04:16:43.695Z,1011.61
2022-07-28T04:17:14.381Z,1011.61
2022-07-28T04:17:36.272Z,1011.61
2022-07-28T04:18:01.164Z,1011.61
2022-07-28T04:18:33.711Z,1011.61
2022-07-28T04:19:05.247Z,1011.61
2022-07-28T04:19:35.425Z,1011.61
2022-07-28T04:19:53.448Z,1011.61
2022-07-28T04:20:25.375Z,1011.61
2022-07-28T04:20:43.863Z,1011.61
2022-07-28T04:21:13.718Z,1011.61
2022-07-28T04:21:37.700Z,1011.61
2022-07-28T04:22:01.288Z,1011.61
2022-07-28T04:22:33.316Z,1011.61
2022-07-28T04:23:05.904Z,1011.51
2022-07-28T04:23:35.442Z,1011.61
2022-07-28T04:23:55.275Z,1011.61
2022-07-28T04:24:25.132Z,1011.61
2022-07-28T04:24:43.023Z,1011.61
2022-07-28T04:25:13.800Z,1011.61
2022-07-28T04:25:35.801Z,1011.72
2022-07-28T04:26:01.444Z,1011.72
2022-07-28T04:26:33.357Z,1011.72
2022-07-28T04:27:05.540Z,1011.72
2022-07-28T04:27:36.365Z,1011.41
2022-07-28T04:28:09.585Z,1011.41
2022-07-28T04:28:35.318Z,1011.51
2022-07-28T04:28:56.976Z,1011.51
2022-07-28T04:29:29.046Z,1011.51
2022-07-28T04:30:01.283Z,1011.61
2022-07-28T04:30:33.379Z,1011.61
2022-07-28T04:31:05.293Z,1011.61
2022-07-28T04:31:36.453Z,1011.61
2022-07-28T04:31:53.291Z,1011.61
2022-07-28T04:32:25.141Z,1011.61
2022-07-28T04:32:42.118Z,1011.41
2022-07-28T04:33:14.387Z,1011.41
2022-07-28T04:33:35.399Z,1011.51
2022-07-28T04:34:01.321Z,1011.51
2022-07-28T04:34:33.319Z,1011.51
2022-07-28T04:35:05.219Z,1011.61
2022-07-28T04:35:35.361Z,1011.61
2022-07-28T04:35:53.278Z,1011.61
2022-07-28T04:36:25.094Z,1011.61
2022-07-28T04:36:43.562Z,1011.61
2022-07-28T04:37:13.279Z,1011.61
2022-07-28T04:37:35.366Z,1011.61
2022-07-28T04:38:02.342Z,1011.61
2022-07-28T04:38:33.399Z,1011.61
2022-07-28T04:39:05.121Z,1011.61
2022-07-28T04:39:35.348Z,1011.41
2022-07-28T04:39:53.307Z,1011.41
2022-07-28T04:40:25.175Z,1011.41
2022-07-28T04:40:42.245Z,1011.61
2022-07-28T04:41:13.298Z,1011.61
2022-07-28T04:41:35.416Z,1011.82
2022-07-28T04:42:01.227Z,1011.82
2022-07-28T04:42:33.323Z,1011.82
2022-07-28T04:43:05.144Z,1011.61
2022-07-28T04:43:36.123Z,1011.61
2022-07-28T04:43:53.406Z,1011.61
2022-07-28T04:44:25.036Z,1011.61
2022-07-28T04:44:44.471Z,1011.51
2022-07-28T04:45:14.526Z,1011.51
2022-07-28T04:45:35.451Z,1011.51
2022-07-28T04:46:01.464Z,1011.51
2022-07-28T04:46:33.269Z,1011.51
2022-07-28T04:47:06.264Z,1011.51
2022-07-28T04:47:35.645Z,1011.61
2022-07-28T04:47:53.330Z,1011.61
2022-07-28T04:48:26.693Z,1011.61
2022-07-28T04:48:44.443Z,1011.61
2022-07-28T04:49:14.477Z,1011.61
2022-07-28T04:49:35.690Z,1011.31
2022-07-28T04:50:01.506Z,1011.31
2022-07-28T04:50:33.318Z,1011.31
2022-07-28T04:51:05.743Z,1011.51
2022-07-28T04:51:35.780Z,1011.61
2022-07-28T04:51:53.307Z,1011.61
2022-07-28T04:52:25.032Z,1011.61
2022-07-28T04:52:42.093Z,1011.41
2022-07-28T04:53:13.384Z,1011.41
2022-07-28T04:53:35.410Z,1011.61
2022-07-28T04:54:02.390Z,1011.61
2022-07-28T04:54:33.364Z,1011.61
2022-07-28T04:55:05.940Z,1011.51
2022-07-28T04:55:35.593Z,1011.51
2022-07-28T04:55:54.743Z,1011.51
2022-07-28T04:56:25.085Z,1011.51
2022-07-28T04:56:42.446Z,1011.51
2022-07-28T04:57:13.313Z,1011.51
2022-07-28T04:57:36.526Z,1011.61
2022-07-28T04:58:01.165Z,1011.61
2022-07-28T04:58:34.341Z,1011.61
2022-07-28T04:59:05.272Z,1011.61
2022-07-28T04:59:36.373Z,1011.61
2022-07-28T04:59:54.258Z,1011.61
2022-07-28T05:00:25.147Z,1011.61
2022-07-28T05:00:42.417Z,1011.61
2022-07-28T05:01:14.549Z,1011.61
2022-07-28T05:01:35.479Z,1011.51
2022-07-28T05:02:01.288Z,1011.51
2022-07-28T05:02:33.380Z,1011.51
2022-07-28T05:03:05.337Z,1011.51
2022-07-28T05:03:36.492Z,1011.72
2022-07-28T05:03:53.237Z,1011.72
2022-07-28T05:04:25.152Z,1011.72
2022-07-28T05:04:42.220Z,1011.61
2022-07-28T05:05:15.236Z,1011.61
2022-07-28T05:05:35.802Z,1011.51
2022-07-28T05:06:01.272Z,1011.51
2022-07-28T05:06:33.375Z,1011.51
2022-07-28T05:07:07.904Z,1011.72
2022-07-28T05:07:35.375Z,1011.61
2022-07-28T05:07:53.289Z,1011.61
2022-07-28T05:08:26.659Z,1011.61
2022-07-28T05:08:44.280Z,1011.61
2022-07-28T05:09:13.317Z,1011.61
2022-07-28T05:09:35.479Z,1011.72
2022-07-28T05:10:01.165Z,1011.72
2022-07-28T05:10:33.295Z,1011.72
2022-07-28T05:11:05.932Z,1011.51
2022-07-28T05:11:36.294Z,1011.41
2022-07-28T05:11:53.058Z,1011.41
2022-07-28T05:12:25.092Z,1011.41
2022-07-28T05:12:42.081Z,1011.61
2022-07-28T05:13:13.350Z,1011.61
2022-07-28T05:13:35.462Z,1011.82
2022-07-28T05:14:01.264Z,1011.82
2022-07-28T05:14:33.282Z,1011.82
2022-07-28T05:15:06.132Z,1011.72
2022-07-28T05:15:35.763Z,1011.61
2022-07-28T05:15:53.225Z,1011.61
2022-07-28T05:16:25.825Z,1011.61
2022-07-28T05:16:44.442Z,1011.51
2022-07-28T05:17:13.250Z,1011.51
2022-07-28T05:17:35.429Z,1011.41
2022-07-28T05:18:01.046Z,1011.41
2022-07-28T05:18:34.309Z,1011.41
2022-07-28T05:19:05.080Z,1011.61
2022-07-28T05:19:35.367Z,1011.41
2022-07-28T05:19:53.001Z,1011.41
2022-07-28T05:20:25.039Z,1011.41
2022-07-28T05:20:42.148Z,1011.51
2022-07-28T05:21:13.278Z,1011.51
2022-07-28T05:21:35.435Z,1011.61
2022-07-28T05:22:02.206Z,1011.61
2022-07-28T05:22:33.088Z,1011.61
2022-07-28T05:23:05.968Z,1011.72
2022-07-28T05:23:35.403Z,1011.41
2022-07-28T05:23:54.099Z,1011.41
2022-07-28T05:24:25.018Z,1011.41
2022-07-28T05:24:42.221Z,1011.61
2022-07-28T05:25:13.301Z,1011.61
2022-07-28T05:25:35.416Z,1011.61
2022-07-28T05:26:01.130Z,1011.61
2022-07-28T05:26:36.605Z,1011.61
2022-07-28T05:27:05.684Z,1011.61
2022-07-28T05:27:35.409Z,1011.51
2022-07-28T05:27:53.131Z,1011.51
2022-07-28T05:28:25.120Z,1011.51
2022-07-28T05:28:42.089Z,1011.61
2022-07-28T05:29:13.245Z,1011.61
2022-07-28T05:29:40.492Z,1011.92
2022-07-28T05:30:01.176Z,1011.92
2022-07-28T05:30:33.180Z,1011.92
2022-07-28T05:31:05.172Z,1011.61
2022-07-28T05:31:37.699Z,1011.61
2022-07-28T05:32:17.268Z,1011.61
2022-07-28T05:32:35.406Z,1011.72
2022-07-28T05:32:56.887Z,1011.72
2022-07-28T05:33:32.155Z,1011.72
2022-07-28T05:34:01.199Z,1011.72
2022-07-28T05:34:33.259Z,1011.72
2022-07-28T05:35:05.244Z,1011.61
2022-07-28T05:35:36.131Z,1011.61
2022-07-28T05:36:08.385Z,1011.61
2022-07-28T05:36:24.970Z,1011.61
2022-07-28T05:36:43.041Z,1011.61
2022-07-28T05:37:13.122Z,1011.61
2022-07-28T05:37:35.422Z,1011.61
2022-07-28T05:38:06.353Z,1011.61
2022-07-28T05:38:33.152Z,1011.61
2022-07-28T05:39:05.214Z,1011.51
2022-07-28T05:39:35.493Z,1011.61
2022-07-28T05:39:53.016Z,1011.61
2022-07-28T05:40:25.120Z,1011.61
2022-07-28T05:40:42.997Z,1011.41
2022-07-28T05:41:13.023Z,1011.41
2022-07-28T05:41:35.880Z,1011.51
2022-07-28T05:42:02.662Z,1011.51
2022-07-28T05:42:33.053Z,1011.51
2022-07-28T05:43:05.211Z,1011.51
2022-07-28T05:43:35.915Z,1011.61
2022-07-28T05:43:53.703Z,1011.61
2022-07-28T05:44:27.038Z,1011.61
2022-07-28T05:44:56.882Z,1011.61
2022-07-28T05:45:29.069Z,1011.61
2022-07-28T05:46:01.125Z,1011.72
2022-07-28T05:46:32.888Z,1011.72
2022-07-28T05:47:05.892Z,1011.82
2022-07-28T05:47:35.368Z,1011.61
2022-07-28T05:47:53.202Z,1011.61
2022-07-28T05:48:24.999Z,1011.61
2022-07-28T05:48:42.268Z,1011.24
2022-07-28T05:49:13.314Z,1011.24
2022-07-28T05:49:35.375Z,1011.72
2022-07-28T05:50:01.171Z,1011.72
2022-07-28T05:50:33.103Z,1011.72
2022-07-28T05:51:05.203Z,1011.61
2022-07-28T05:51:41.220Z,1011.61
2022-07-28T05:51:53.204Z,1011.61
2022-07-28T05:52:26.029Z,1011.61
2022-07-28T05:52:43.447Z,1011.41
2022-07-28T05:53:14.257Z,1011.41
2022-07-28T05:53:36.248Z,1011.72
2022-07-28T05:54:01.831Z,1011.72
2022-07-28T05:54:34.269Z,1011.72
2022-07-28T05:55:05.277Z,1011.82
2022-07-28T05:55:35.418Z,1011.72
2022-07-28T05:56:08.997Z,1011.72
2022-07-28T05:56:36.098Z,1011.61
2022-07-28T05:56:56.887Z,1011.61
2022-07-28T05:57:29.008Z,1011.61
2022-07-28T05:58:01.057Z,1011.72
2022-07-28T05:58:33.274Z,1011.72
2022-07-28T05:59:05.083Z,1012.02
2022-07-28T05:59:35.584Z,1011.82
2022-07-28T05:59:53.049Z,1011.82
2022-07-28T06:00:25.100Z,1011.82
2022-07-28T06:00:43.015Z,1011.82
2022-07-28T06:01:15.583Z,1011.82
2022-07-28T06:01:35.514Z,1011.82